sensor_id;sensor_type;location;lat;lon;timestamp;pressure;altitude;pressure_sealevel;temperature;humidity
66668;BME280;57205;51.438;-2.006;2024-03-08T00:01:35;100688.13;;;5.10;100.00
66668;BME280;57205;51.438;-2.006;2024-03-08T00:04:00;100677.53;;;5.10;100.00
66668;BME280;57205;51.438;-2.006;2024-03-08T00:06:26;100680.19;;;5.10;100.00
66668;BME280;57205;51.438;-2.006;2024-03-08T00:08:51;100685.47;;;5.10;100.00
66668;BME280;57205;51.438;-2.006;2024-03-08T00:11:17;100684.81;;;5.14;100.00
66668;BME280;57205;51.438;-2.006;2024-03-08T00:13:42;100681.34;;;5.14;100.00
66668;BME280;57205;51.438;-2.006;2024-03-08T00:16:07;100675.03;;;5.15;100.00
66668;BME280;57205;51.438;-2.006;2024-03-08T00:18:34;100675.56;;;5.17;100.00
66668;BME280;57205;51.438;-2.006;2024-03-08T00:21:00;100670.38;;;5.10;100.00
66668;BME280;57205;51.438;-2.006;2024-03-08T00:23:25;100666.91;;;5.10;100.00
66668;BME280;57205;51.438;-2.006;2024-03-08T00:25:51;100659.66;;;5.05;100.00
66668;BME280;57205;51.438;-2.006;2024-03-08T00:28:16;100661.38;;;5.00;100.00
66668;BME280;57205;51.438;-2.006;2024-03-08T00:30:44;100658.56;;;4.94;100.00
66668;BME280;57205;51.438;-2.006;2024-03-08T00:33:10;100653.97;;;4.90;100.00
66668;BME280;57205;51.438;-2.006;2024-03-08T00:35:36;100652.56;;;4.87;100.00
66668;BME280;57205;51.438;-2.006;2024-03-08T00:38:01;100657.16;;;4.80;100.00
66668;BME280;57205;51.438;-2.006;2024-03-08T00:40:27;100658.03;;;4.74;100.00
66668;BME280;57205;51.438;-2.006;2024-03-08T00:42:54;100661.16;;;4.71;100.00
66668;BME280;57205;51.438;-2.006;2024-03-08T00:45:19;100666.31;;;4.66;100.00
66668;BME280;57205;51.438;-2.006;2024-03-08T00:47:44;100670.88;;;4.59;100.00
66668;BME280;57205;51.438;-2.006;2024-03-08T00:50:10;100658.81;;;4.63;100.00
66668;BME280;57205;51.438;-2.006;2024-03-08T00:52:37;100659.50;;;4.59;100.00
66668;BME280;57205;51.438;-2.006;2024-03-08T00:55:02;100648.50;;;4.55;100.00
66668;BME280;57205;51.438;-2.006;2024-03-08T00:57:28;100653.47;;;4.52;100.00
66668;BME280;57205;51.438;-2.006;2024-03-08T00:59:55;100643.31;;;4.49;100.00
66668;BME280;57205;51.438;-2.006;2024-03-08T01:02:21;100645.38;;;4.47;100.00
66668;BME280;57205;51.438;-2.006;2024-03-08T01:04:48;100642.38;;;4.43;100.00
66668;BME280;57205;51.438;-2.006;2024-03-08T01:07:14;100633.59;;;4.43;100.00
66668;BME280;57205;51.438;-2.006;2024-03-08T01:09:39;100623.47;;;4.40;100.00
66668;BME280;57205;51.438;-2.006;2024-03-08T01:12:05;100630.00;;;4.37;100.00
66668;BME280;57205;51.438;-2.006;2024-03-08T01:14:33;100612.75;;;4.35;100.00
66668;BME280;57205;51.438;-2.006;2024-03-08T01:16:58;100618.69;;;4.30;100.00
66668;BME280;57205;51.438;-2.006;2024-03-08T01:19:24;100611.22;;;4.27;100.00
66668;BME280;57205;51.438;-2.006;2024-03-08T01:21:50;100598.41;;;4.24;100.00
66668;BME280;57205;51.438;-2.006;2024-03-08T01:24:16;100602.88;;;4.24;100.00
66668;BME280;57205;51.438;-2.006;2024-03-08T01:26:42;100607.63;;;4.22;100.00
66668;BME280;57205;51.438;-2.006;2024-03-08T01:29:07;100598.50;;;4.18;100.00
66668;BME280;57205;51.438;-2.006;2024-03-08T01:31:33;100595.25;;;4.16;100.00
66668;BME280;57205;51.438;-2.006;2024-03-08T01:33:58;100594.91;;;4.12;100.00
66668;BME280;57205;51.438;-2.006;2024-03-08T01:36:24;100584.31;;;4.12;100.00
66668;BME280;57205;51.438;-2.006;2024-03-08T01:38:50;100580.72;;;4.07;100.00
66668;BME280;57205;51.438;-2.006;2024-03-08T01:41:16;100578.66;;;4.09;100.00
66668;BME280;57205;51.438;-2.006;2024-03-08T01:43:43;100572.97;;;4.05;100.00
66668;BME280;57205;51.438;-2.006;2024-03-08T01:46:09;100573.41;;;4.02;100.00
66668;BME280;57205;51.438;-2.006;2024-03-08T01:48:35;100564.88;;;4.00;100.00
66668;BME280;57205;51.438;-2.006;2024-03-08T01:51:02;100567.19;;;3.96;100.00
66668;BME280;57205;51.438;-2.006;2024-03-08T01:53:28;100561.53;;;3.93;100.00
66668;BME280;57205;51.438;-2.006;2024-03-08T01:55:56;100555.63;;;3.91;100.00
66668;BME280;57205;51.438;-2.006;2024-03-08T01:58:25;100560.13;;;3.90;100.00
66668;BME280;57205;51.438;-2.006;2024-03-08T02:00:53;100554.47;;;3.87;100.00
66668;BME280;57205;51.438;-2.006;2024-03-08T02:03:19;100545.94;;;3.85;100.00
66668;BME280;57205;51.438;-2.006;2024-03-08T02:05:46;100538.44;;;3.82;100.00
66668;BME280;57205;51.438;-2.006;2024-03-08T02:08:11;100524.03;;;3.78;100.00
66668;BME280;57205;51.438;-2.006;2024-03-08T02:10:40;100516.56;;;3.75;100.00
66668;BME280;57205;51.438;-2.006;2024-03-08T02:13:09;100526.91;;;3.76;100.00
66668;BME280;57205;51.438;-2.006;2024-03-08T02:15:58;100509.22;;;3.77;100.00
66668;BME280;57205;51.438;-2.006;2024-03-08T02:18:28;100510.44;;;3.74;100.00
66668;BME280;57205;51.438;-2.006;2024-03-08T02:20:55;100513.91;;;3.75;100.00
66668;BME280;57205;51.438;-2.006;2024-03-08T02:23:22;100497.34;;;3.79;100.00
66668;BME280;57205;51.438;-2.006;2024-03-08T02:25:50;100497.13;;;3.81;100.00
66668;BME280;57205;51.438;-2.006;2024-03-08T02:28:16;100488.16;;;3.82;100.00
66668;BME280;57205;51.438;-2.006;2024-03-08T02:30:44;100486.94;;;3.84;100.00
66668;BME280;57205;51.438;-2.006;2024-03-08T02:33:13;100471.84;;;3.85;100.00
66668;BME280;57205;51.438;-2.006;2024-03-08T02:35:39;100465.53;;;3.86;100.00
66668;BME280;57205;51.438;-2.006;2024-03-08T02:38:05;100470.94;;;3.91;100.00
66668;BME280;57205;51.438;-2.006;2024-03-08T02:40:30;100464.41;;;3.93;100.00
66668;BME280;57205;51.438;-2.006;2024-03-08T02:42:56;100461.59;;;3.88;100.00
66668;BME280;57205;51.438;-2.006;2024-03-08T02:45:21;100463.00;;;3.91;100.00
66668;BME280;57205;51.438;-2.006;2024-03-08T02:47:46;100459.47;;;3.97;100.00
66668;BME280;57205;51.438;-2.006;2024-03-08T02:50:14;100458.19;;;3.99;100.00
66668;BME280;57205;51.438;-2.006;2024-03-08T02:52:42;100453.94;;;3.98;100.00
66668;BME280;57205;51.438;-2.006;2024-03-08T02:55:08;100450.47;;;3.98;100.00
66668;BME280;57205;51.438;-2.006;2024-03-08T02:57:36;100445.66;;;3.95;100.00
66668;BME280;57205;51.438;-2.006;2024-03-08T03:00:02;100444.03;;;3.94;100.00
66668;BME280;57205;51.438;-2.006;2024-03-08T03:02:29;100437.25;;;3.98;100.00
66668;BME280;57205;51.438;-2.006;2024-03-08T03:04:54;100431.94;;;3.98;100.00
66668;BME280;57205;51.438;-2.006;2024-03-08T03:07:21;100440.72;;;3.98;100.00
66668;BME280;57205;51.438;-2.006;2024-03-08T03:09:46;100433.34;;;4.01;100.00
66668;BME280;57205;51.438;-2.006;2024-03-08T03:12:12;100429.88;;;4.00;100.00
66668;BME280;57205;51.438;-2.006;2024-03-08T03:14:37;100419.88;;;4.02;100.00
66668;BME280;57205;51.438;-2.006;2024-03-08T03:17:06;100421.16;;;4.11;100.00
66668;BME280;57205;51.438;-2.006;2024-03-08T03:19:31;100414.50;;;4.09;100.00
66668;BME280;57205;51.438;-2.006;2024-03-08T03:21:57;100410.81;;;4.10;100.00
66668;BME280;57205;51.438;-2.006;2024-03-08T03:24:23;100409.56;;;4.12;100.00
66668;BME280;57205;51.438;-2.006;2024-03-08T03:26:49;100403.34;;;4.18;100.00
66668;BME280;57205;51.438;-2.006;2024-03-08T03:29:15;100403.25;;;4.25;100.00
66668;BME280;57205;51.438;-2.006;2024-03-08T03:31:42;100408.09;;;4.28;100.00
66668;BME280;57205;51.438;-2.006;2024-03-08T03:34:07;100401.63;;;4.35;100.00
66668;BME280;57205;51.438;-2.006;2024-03-08T03:36:34;100399.91;;;4.41;100.00
66668;BME280;57205;51.438;-2.006;2024-03-08T03:39:00;100388.88;;;4.44;100.00
66668;BME280;57205;51.438;-2.006;2024-03-08T03:41:37;100393.47;;;4.48;100.00
66668;BME280;57205;51.438;-2.006;2024-03-08T03:44:04;100379.56;;;4.53;100.00
66668;BME280;57205;51.438;-2.006;2024-03-08T03:46:30;100378.28;;;4.55;100.00
66668;BME280;57205;51.438;-2.006;2024-03-08T03:48:56;100371.38;;;4.54;100.00
66668;BME280;57205;51.438;-2.006;2024-03-08T03:51:21;100375.75;;;4.60;100.00
66668;BME280;57205;51.438;-2.006;2024-03-08T03:53:47;100373.44;;;4.64;100.00
66668;BME280;57205;51.438;-2.006;2024-03-08T03:56:12;100366.88;;;4.66;100.00
66668;BME280;57205;51.438;-2.006;2024-03-08T03:58:38;100368.59;;;4.72;100.00
66668;BME280;57205;51.438;-2.006;2024-03-08T04:01:05;100364.91;;;4.73;100.00
66668;BME280;57205;51.438;-2.006;2024-03-08T04:03:30;100357.06;;;4.78;100.00
66668;BME280;57205;51.438;-2.006;2024-03-08T04:05:56;100343.34;;;4.81;100.00
66668;BME280;57205;51.438;-2.006;2024-03-08T04:08:22;100343.91;;;4.83;100.00
66668;BME280;57205;51.438;-2.006;2024-03-08T04:10:50;100341.41;;;4.88;100.00
66668;BME280;57205;51.438;-2.006;2024-03-08T04:13:16;100344.38;;;4.92;100.00
66668;BME280;57205;51.438;-2.006;2024-03-08T04:15:41;100330.06;;;4.93;100.00
66668;BME280;57205;51.438;-2.006;2024-03-08T04:18:09;100317.38;;;4.95;100.00
66668;BME280;57205;51.438;-2.006;2024-03-08T04:20:34;100321.66;;;4.96;100.00
66668;BME280;57205;51.438;-2.006;2024-03-08T04:23:00;100322.44;;;4.96;100.00
66668;BME280;57205;51.438;-2.006;2024-03-08T04:25:25;100312.19;;;5.00;100.00
66668;BME280;57205;51.438;-2.006;2024-03-08T04:27:52;100303.66;;;4.98;100.00
66668;BME280;57205;51.438;-2.006;2024-03-08T04:30:18;100307.59;;;4.95;100.00
66668;BME280;57205;51.438;-2.006;2024-03-08T04:32:43;100310.25;;;4.95;100.00
66668;BME280;57205;51.438;-2.006;2024-03-08T04:35:09;100308.63;;;4.94;100.00
66668;BME280;57205;51.438;-2.006;2024-03-08T04:37:34;100309.19;;;4.96;100.00
66668;BME280;57205;51.438;-2.006;2024-03-08T04:40:02;100303.31;;;4.94;100.00
66668;BME280;57205;51.438;-2.006;2024-03-08T04:42:29;100302.38;;;5.01;100.00
66668;BME280;57205;51.438;-2.006;2024-03-08T04:44:55;100296.50;;;4.98;100.00
66668;BME280;57205;51.438;-2.006;2024-03-08T04:47:21;100304.94;;;4.95;100.00
66668;BME280;57205;51.438;-2.006;2024-03-08T04:49:46;100298.03;;;4.94;100.00
66668;BME280;57205;51.438;-2.006;2024-03-08T04:52:12;100301.16;;;4.91;100.00
66668;BME280;57205;51.438;-2.006;2024-03-08T04:54:37;100293.53;;;4.95;100.00
66668;BME280;57205;51.438;-2.006;2024-03-08T04:57:03;100293.53;;;4.95;100.00
66668;BME280;57205;51.438;-2.006;2024-03-08T04:59:30;100294.34;;;4.95;100.00
66668;BME280;57205;51.438;-2.006;2024-03-08T05:01:55;100286.84;;;4.92;100.00
66668;BME280;57205;51.438;-2.006;2024-03-08T05:04:21;100289.97;;;4.89;100.00
66668;BME280;57205;51.438;-2.006;2024-03-08T05:06:47;100281.69;;;4.86;100.00
66668;BME280;57205;51.438;-2.006;2024-03-08T05:09:13;100286.09;;;4.80;100.00
66668;BME280;57205;51.438;-2.006;2024-03-08T05:11:42;100287.00;;;4.74;100.00
66668;BME280;57205;51.438;-2.006;2024-03-08T05:14:09;100276.31;;;4.69;100.00
66668;BME280;57205;51.438;-2.006;2024-03-08T05:16:35;100279.91;;;4.63;100.00
66668;BME280;57205;51.438;-2.006;2024-03-08T05:19:01;100278.28;;;4.62;100.00
66668;BME280;57205;51.438;-2.006;2024-03-08T05:21:27;100269.88;;;4.54;100.00
66668;BME280;57205;51.438;-2.006;2024-03-08T05:23:54;100273.25;;;4.49;100.00
66668;BME280;57205;51.438;-2.006;2024-03-08T05:26:19;100275.78;;;4.44;100.00
66668;BME280;57205;51.438;-2.006;2024-03-08T05:28:45;100269.13;;;4.42;100.00
66668;BME280;57205;51.438;-2.006;2024-03-08T05:31:20;100270.28;;;4.34;100.00
66668;BME280;57205;51.438;-2.006;2024-03-08T05:33:49;100263.00;;;4.30;100.00
66668;BME280;57205;51.438;-2.006;2024-03-08T05:36:15;100268.78;;;4.27;100.00
66668;BME280;57205;51.438;-2.006;2024-03-08T05:38:42;100262.56;;;4.21;100.00
66668;BME280;57205;51.438;-2.006;2024-03-08T05:41:09;100265.66;;;4.18;100.00
66668;BME280;57205;51.438;-2.006;2024-03-08T05:43:34;100266.13;;;4.15;100.00
66668;BME280;57205;51.438;-2.006;2024-03-08T05:46:00;100254.84;;;4.08;100.00
66668;BME280;57205;51.438;-2.006;2024-03-08T05:48:25;100261.16;;;4.07;100.00
66668;BME280;57205;51.438;-2.006;2024-03-08T05:50:51;100253.34;;;4.01;100.00
66668;BME280;57205;51.438;-2.006;2024-03-08T05:53:16;100258.88;;;3.99;100.00
66668;BME280;57205;51.438;-2.006;2024-03-08T05:55:41;100257.25;;;3.98;100.00
66668;BME280;57205;51.438;-2.006;2024-03-08T05:58:07;100254.28;;;3.94;100.00
66668;BME280;57205;51.438;-2.006;2024-03-08T06:00:34;100240.47;;;3.92;100.00
66668;BME280;57205;51.438;-2.006;2024-03-08T06:03:01;100242.75;;;3.89;100.00
66668;BME280;57205;51.438;-2.006;2024-03-08T06:05:28;100245.88;;;3.86;100.00
66668;BME280;57205;51.438;-2.006;2024-03-08T06:07:53;100237.34;;;3.84;100.00
66668;BME280;57205;51.438;-2.006;2024-03-08T06:10:19;100247.84;;;3.79;100.00
66668;BME280;57205;51.438;-2.006;2024-03-08T06:12:44;100246.22;;;3.78;100.00
66668;BME280;57205;51.438;-2.006;2024-03-08T06:15:10;100244.59;;;3.77;100.00
66668;BME280;57205;51.438;-2.006;2024-03-08T06:17:40;100249.09;;;3.76;100.00
66668;BME280;57205;51.438;-2.006;2024-03-08T06:20:06;100252.19;;;3.73;100.00
66668;BME280;57205;51.438;-2.006;2024-03-08T06:22:41;100243.88;;;3.70;100.00
66668;BME280;57205;51.438;-2.006;2024-03-08T06:25:13;100260.81;;;3.69;100.00
66668;BME280;57205;51.438;-2.006;2024-03-08T06:27:41;100246.41;;;3.65;100.00
66668;BME280;57205;51.438;-2.006;2024-03-08T06:30:12;100233.66;;;3.62;100.00
66668;BME280;57205;51.438;-2.006;2024-03-08T06:32:37;100241.81;;;3.60;100.00
66668;BME280;57205;51.438;-2.006;2024-03-08T06:35:04;100227.56;;;3.61;100.00
66668;BME280;57205;51.438;-2.006;2024-03-08T06:37:33;100243.06;;;3.58;100.00
66668;BME280;57205;51.438;-2.006;2024-03-08T06:39:59;100243.66;;;3.60;100.00
66668;BME280;57205;51.438;-2.006;2024-03-08T06:42:26;100247.31;;;3.59;100.00
66668;BME280;57205;51.438;-2.006;2024-03-08T06:44:52;100246.75;;;3.57;100.00
66668;BME280;57205;51.438;-2.006;2024-03-08T06:47:20;100246.97;;;3.55;100.00
66668;BME280;57205;51.438;-2.006;2024-03-08T06:49:46;100244.31;;;3.55;100.00
66668;BME280;57205;51.438;-2.006;2024-03-08T06:52:11;100242.72;;;3.54;100.00
66668;BME280;57205;51.438;-2.006;2024-03-08T06:54:37;100246.75;;;3.57;100.00
66668;BME280;57205;51.438;-2.006;2024-03-08T06:57:04;100262.19;;;3.60;100.00
66668;BME280;57205;51.438;-2.006;2024-03-08T06:59:32;100263.34;;;3.64;100.00
66668;BME280;57205;51.438;-2.006;2024-03-08T07:01:58;100271.38;;;3.69;100.00
66668;BME280;57205;51.438;-2.006;2024-03-08T07:04:25;100270.38;;;3.81;100.00
66668;BME280;57205;51.438;-2.006;2024-03-08T07:06:59;100261.88;;;3.91;100.00
66668;BME280;57205;51.438;-2.006;2024-03-08T07:09:24;100250.38;;;3.97;100.00
66668;BME280;57205;51.438;-2.006;2024-03-08T07:11:50;100252.09;;;4.03;100.00
66668;BME280;57205;51.438;-2.006;2024-03-08T07:14:23;100252.88;;;4.15;100.00
66668;BME280;57205;51.438;-2.006;2024-03-08T07:16:50;100242.41;;;4.20;100.00
66668;BME280;57205;51.438;-2.006;2024-03-08T07:19:16;100258.75;;;4.29;100.00
66668;BME280;57205;51.438;-2.006;2024-03-08T07:21:45;100246.78;;;4.38;100.00
66668;BME280;57205;51.438;-2.006;2024-03-08T07:24:12;100248.84;;;4.47;100.00
66668;BME280;57205;51.438;-2.006;2024-03-08T07:27:04;100235.56;;;4.59;100.00
66668;BME280;57205;51.438;-2.006;2024-03-08T07:29:30;100223.22;;;4.64;100.00
66668;BME280;57205;51.438;-2.006;2024-03-08T07:31:56;100218.69;;;4.76;100.00
66668;BME280;57205;51.438;-2.006;2024-03-08T07:34:28;100219.81;;;4.80;100.00
66668;BME280;57205;51.438;-2.006;2024-03-08T07:37:02;100211.25;;;4.90;100.00
66668;BME280;57205;51.438;-2.006;2024-03-08T07:39:28;100212.63;;;4.92;100.00
66668;BME280;57205;51.438;-2.006;2024-03-08T07:41:53;100219.31;;;4.95;100.00
66668;BME280;57205;51.438;-2.006;2024-03-08T07:44:19;100221.34;;;5.05;100.00
66668;BME280;57205;51.438;-2.006;2024-03-08T07:46:44;100209.88;;;5.16;100.00
66668;BME280;57205;51.438;-2.006;2024-03-08T07:49:11;100204.75;;;5.26;100.00
66668;BME280;57205;51.438;-2.006;2024-03-08T07:51:37;100204.03;;;5.47;100.00
66668;BME280;57205;51.438;-2.006;2024-03-08T07:54:04;100188.53;;;5.55;100.00
66668;BME280;57205;51.438;-2.006;2024-03-08T07:56:30;100190.44;;;5.60;100.00
66668;BME280;57205;51.438;-2.006;2024-03-08T07:58:56;100188.03;;;5.58;100.00
66668;BME280;57205;51.438;-2.006;2024-03-08T08:01:21;100185.63;;;5.57;100.00
66668;BME280;57205;51.438;-2.006;2024-03-08T08:03:47;100177.44;;;5.58;100.00
66668;BME280;57205;51.438;-2.006;2024-03-08T08:06:15;100175.47;;;5.54;100.00
66668;BME280;57205;51.438;-2.006;2024-03-08T08:08:42;100162.75;;;5.72;100.00
66668;BME280;57205;51.438;-2.006;2024-03-08T08:11:11;100151.19;;;5.95;100.00
66668;BME280;57205;51.438;-2.006;2024-03-08T08:13:37;100138.72;;;6.17;100.00
66668;BME280;57205;51.438;-2.006;2024-03-08T08:16:03;100140.50;;;6.55;100.00
66668;BME280;57205;51.438;-2.006;2024-03-08T08:18:29;100133.88;;;6.84;100.00
66668;BME280;57205;51.438;-2.006;2024-03-08T08:20:55;100133.72;;;6.96;100.00
66668;BME280;57205;51.438;-2.006;2024-03-08T08:23:21;100112.25;;;7.02;100.00
66668;BME280;57205;51.438;-2.006;2024-03-08T08:25:47;100104.31;;;7.39;100.00
66668;BME280;57205;51.438;-2.006;2024-03-08T08:28:16;100110.41;;;7.76;100.00
66668;BME280;57205;51.438;-2.006;2024-03-08T08:30:43;100084.59;;;7.86;100.00
66668;BME280;57205;51.438;-2.006;2024-03-08T08:33:09;100094.84;;;8.10;100.00
66668;BME280;57205;51.438;-2.006;2024-03-08T08:35:36;100088.31;;;8.37;100.00
66668;BME280;57205;51.438;-2.006;2024-03-08T08:38:02;100072.13;;;8.84;100.00
66668;BME280;57205;51.438;-2.006;2024-03-08T08:40:29;100073.44;;;9.22;100.00
66668;BME280;57205;51.438;-2.006;2024-03-08T08:42:56;100077.44;;;9.39;100.00
66668;BME280;57205;51.438;-2.006;2024-03-08T08:45:25;100061.09;;;9.71;100.00
66668;BME280;57205;51.438;-2.006;2024-03-08T08:47:52;100054.16;;;9.65;100.00
66668;BME280;57205;51.438;-2.006;2024-03-08T08:50:17;100037.59;;;9.68;100.00
66668;BME280;57205;51.438;-2.006;2024-03-08T08:52:49;100042.81;;;9.98;100.00
66668;BME280;57205;51.438;-2.006;2024-03-08T08:55:15;100038.78;;;10.16;100.00
66668;BME280;57205;51.438;-2.006;2024-03-08T08:57:41;100034.97;;;10.27;100.00
66668;BME280;57205;51.438;-2.006;2024-03-08T09:00:08;100028.53;;;10.33;100.00
66668;BME280;57205;51.438;-2.006;2024-03-08T09:02:34;100025.31;;;10.31;100.00
66668;BME280;57205;51.438;-2.006;2024-03-08T09:04:59;100020.50;;;10.66;100.00
66668;BME280;57205;51.438;-2.006;2024-03-08T09:07:26;100035.09;;;10.84;100.00
66668;BME280;57205;51.438;-2.006;2024-03-08T09:09:53;100025.50;;;10.78;100.00
66668;BME280;57205;51.438;-2.006;2024-03-08T09:12:23;100048.06;;;10.72;100.00
66668;BME280;57205;51.438;-2.006;2024-03-08T09:14:56;100022.38;;;10.32;100.00
66668;BME280;57205;51.438;-2.006;2024-03-08T09:17:28;100010.31;;;10.73;100.00
66668;BME280;57205;51.438;-2.006;2024-03-08T09:19:54;99994.59;;;10.96;100.00
66668;BME280;57205;51.438;-2.006;2024-03-08T09:22:20;99998.69;;;10.88;100.00
66668;BME280;57205;51.438;-2.006;2024-03-08T09:24:46;99992.81;;;11.15;100.00
66668;BME280;57205;51.438;-2.006;2024-03-08T09:27:11;99976.38;;;11.50;100.00
66668;BME280;57205;51.438;-2.006;2024-03-08T09:29:37;99983.03;;;11.52;100.00
66668;BME280;57205;51.438;-2.006;2024-03-08T09:32:04;99963.94;;;11.83;100.00
66668;BME280;57205;51.438;-2.006;2024-03-08T09:34:30;99981.66;;;11.55;100.00
66668;BME280;57205;51.438;-2.006;2024-03-08T09:36:55;99969.34;;;11.30;100.00
66668;BME280;57205;51.438;-2.006;2024-03-08T09:39:21;99995.91;;;11.27;100.00
66668;BME280;57205;51.438;-2.006;2024-03-08T09:41:50;99973.19;;;10.96;100.00
66668;BME280;57205;51.438;-2.006;2024-03-08T09:44:17;100001.47;;;10.73;100.00
66668;BME280;57205;51.438;-2.006;2024-03-08T09:46:46;99955.75;;;10.69;100.00
66668;BME280;57205;51.438;-2.006;2024-03-08T09:49:13;99956.31;;;10.66;100.00
66668;BME280;57205;51.438;-2.006;2024-03-08T09:51:39;99951.44;;;10.73;100.00
66668;BME280;57205;51.438;-2.006;2024-03-08T09:54:07;99949.50;;;11.08;100.00
66668;BME280;57205;51.438;-2.006;2024-03-08T09:56:35;99946.28;;;11.11;100.00
66668;BME280;57205;51.438;-2.006;2024-03-08T09:59:02;99951.09;;;11.09;100.00
66668;BME280;57205;51.438;-2.006;2024-03-08T10:01:46;99935.25;;;11.83;100.00
66668;BME280;57205;51.438;-2.006;2024-03-08T10:04:11;99922.19;;;11.95;100.00
66668;BME280;57205;51.438;-2.006;2024-03-08T10:06:37;99904.00;;;12.61;100.00
66668;BME280;57205;51.438;-2.006;2024-03-08T10:09:02;99921.19;;;12.60;100.00
66668;BME280;57205;51.438;-2.006;2024-03-08T10:11:28;99909.88;;;12.31;100.00
66668;BME280;57205;51.438;-2.006;2024-03-08T10:13:54;99917.72;;;12.09;100.00
66668;BME280;57205;51.438;-2.006;2024-03-08T10:16:20;99910.91;;;11.98;100.00
66668;BME280;57205;51.438;-2.006;2024-03-08T10:18:45;99904.53;;;11.94;100.00
66668;BME280;57205;51.438;-2.006;2024-03-08T10:21:11;99900.25;;;11.93;100.00
66668;BME280;57205;51.438;-2.006;2024-03-08T10:23:39;99893.72;;;11.81;100.00
66668;BME280;57205;51.438;-2.006;2024-03-08T10:26:15;99895.84;;;11.60;100.00
66668;BME280;57205;51.438;-2.006;2024-03-08T10:28:47;99894.03;;;11.37;100.00
66668;BME280;57205;51.438;-2.006;2024-03-08T10:31:16;99898.00;;;11.16;100.00
66668;BME280;57205;51.438;-2.006;2024-03-08T10:33:42;99905.19;;;10.97;100.00
66668;BME280;57205;51.438;-2.006;2024-03-08T10:36:08;99894.00;;;11.13;100.00
66668;BME280;57205;51.438;-2.006;2024-03-08T10:38:41;99887.38;;;11.11;100.00
66668;BME280;57205;51.438;-2.006;2024-03-08T10:41:10;99888.88;;;11.17;100.00
66668;BME280;57205;51.438;-2.006;2024-03-08T10:49:24;99870.72;;;11.14;100.00
66668;BME280;57205;51.438;-2.006;2024-03-08T10:51:50;99876.38;;;10.89;100.00
66668;BME280;57205;51.438;-2.006;2024-03-08T10:54:19;99866.38;;;10.70;100.00
66668;BME280;57205;51.438;-2.006;2024-03-08T10:56:48;99865.41;;;10.85;100.00
66668;BME280;57205;51.438;-2.006;2024-03-08T10:59:14;99870.28;;;10.54;100.00
66668;BME280;57205;51.438;-2.006;2024-03-08T11:01:40;99856.97;;;10.49;100.00
66668;BME280;57205;51.438;-2.006;2024-03-08T11:04:06;99854.66;;;10.38;100.00
66668;BME280;57205;51.438;-2.006;2024-03-08T11:09:08;99854.47;;;10.29;100.00
66668;BME280;57205;51.438;-2.006;2024-03-08T11:11:40;99841.09;;;10.29;100.00
66668;BME280;57205;51.438;-2.006;2024-03-08T11:15:01;99847.22;;;10.30;100.00
66668;BME280;57205;51.438;-2.006;2024-03-08T11:19:57;99849.63;;;10.31;100.00
66668;BME280;57205;51.438;-2.006;2024-03-08T11:22:28;99855.19;;;10.40;100.00
66668;BME280;57205;51.438;-2.006;2024-03-08T11:25:04;99843.69;;;10.68;100.00
66668;BME280;57205;51.438;-2.006;2024-03-08T11:27:35;99858.34;;;10.70;100.00
66668;BME280;57205;51.438;-2.006;2024-03-08T11:30:06;99832.97;;;10.68;100.00
66668;BME280;57205;51.438;-2.006;2024-03-08T11:32:50;99826.22;;;10.70;100.00
66668;BME280;57205;51.438;-2.006;2024-03-08T11:35:22;99828.75;;;10.86;100.00
66668;BME280;57205;51.438;-2.006;2024-03-08T11:37:50;99827.09;;;10.90;100.00
66668;BME280;57205;51.438;-2.006;2024-03-08T11:40:16;99818.63;;;10.82;100.00
66668;BME280;57205;51.438;-2.006;2024-03-08T11:42:48;99808.66;;;10.88;100.00
66668;BME280;57205;51.438;-2.006;2024-03-08T11:45:15;99827.50;;;10.78;100.00
66668;BME280;57205;51.438;-2.006;2024-03-08T11:47:43;99834.25;;;10.70;100.00
66668;BME280;57205;51.438;-2.006;2024-03-08T11:50:12;99803.34;;;10.59;100.00
66668;BME280;57205;51.438;-2.006;2024-03-08T11:52:38;99824.63;;;10.46;100.00
66668;BME280;57205;51.438;-2.006;2024-03-08T11:55:04;99805.84;;;10.51;100.00
66668;BME280;57205;51.438;-2.006;2024-03-08T11:57:30;99820.78;;;10.57;100.00
66668;BME280;57205;51.438;-2.006;2024-03-08T11:59:58;99800.13;;;10.34;100.00
66668;BME280;57205;51.438;-2.006;2024-03-08T12:02:24;99802.53;;;10.35;100.00
66668;BME280;57205;51.438;-2.006;2024-03-08T12:05:00;99805.78;;;10.32;100.00
66668;BME280;57205;51.438;-2.006;2024-03-08T12:07:29;99781.13;;;10.35;100.00
66668;BME280;57205;51.438;-2.006;2024-03-08T12:10:15;99790.75;;;10.36;100.00
66668;BME280;57205;51.438;-2.006;2024-03-08T12:12:54;99769.66;;;10.35;100.00
66668;BME280;57205;51.438;-2.006;2024-03-08T12:15:23;99783.19;;;10.43;100.00
66668;BME280;57205;51.438;-2.006;2024-03-08T12:17:53;99762.31;;;10.45;100.00
66668;BME280;57205;51.438;-2.006;2024-03-08T12:20:26;99766.81;;;10.50;100.00
66668;BME280;57205;51.438;-2.006;2024-03-08T12:22:55;99757.94;;;10.54;100.00
66668;BME280;57205;51.438;-2.006;2024-03-08T12:25:31;99757.25;;;10.67;100.00
66668;BME280;57205;51.438;-2.006;2024-03-08T12:28:06;99762.94;;;10.61;100.00
66668;BME280;57205;51.438;-2.006;2024-03-08T12:30:32;99773.16;;;10.59;100.00
66668;BME280;57205;51.438;-2.006;2024-03-08T12:33:01;99749.25;;;10.44;100.00
66668;BME280;57205;51.438;-2.006;2024-03-08T12:35:28;99743.41;;;10.37;100.00
66668;BME280;57205;51.438;-2.006;2024-03-08T12:37:56;99745.31;;;10.36;100.00
66668;BME280;57205;51.438;-2.006;2024-03-08T12:40:27;99740.25;;;10.35;100.00
66668;BME280;57205;51.438;-2.006;2024-03-08T12:42:57;99738.13;;;10.32;100.00
66668;BME280;57205;51.438;-2.006;2024-03-08T12:45:27;99731.50;;;10.24;100.00
66668;BME280;57205;51.438;-2.006;2024-03-08T12:47:53;99739.91;;;10.13;100.00
66668;BME280;57205;51.438;-2.006;2024-03-08T12:50:23;99746.63;;;10.05;100.00
66668;BME280;57205;51.438;-2.006;2024-03-08T12:52:50;99739.72;;;10.04;100.00